createdAt,value
2019-03-24T00:01:18.322Z,101407.79
2019-03-24T00:03:49.058Z,101421.34
2019-03-24T00:06:19.724Z,101409.58
2019-03-24T00:08:50.564Z,101410.27
2019-03-24T00:11:21.439Z,101411.20
2019-03-24T00:13:52.092Z,101412.42
2019-03-24T00:16:22.740Z,101403.11
2019-03-24T00:18:53.581Z,101409.21
2019-03-24T00:21:24.230Z,101413.16
2019-03-24T00:23:55.003Z,101410.95
2019-03-24T00:26:25.654Z,101407.92
2019-03-24T00:28:56.510Z,101415.93
2019-03-24T00:31:27.369Z,101415.56
2019-03-24T00:33:58.121Z,101429.47
2019-03-24T00:36:29.530Z,101423.34
2019-03-24T00:39:00.447Z,101423.16
2019-03-24T00:41:31.182Z,101419.14
2019-03-24T00:44:02.057Z,101424.33
2019-03-24T00:46:32.812Z,101416.02
2019-03-24T00:49:03.446Z,101414.30
2019-03-24T00:51:34.196Z,101418.05
2019-03-24T00:54:05.071Z,101419.94
2019-03-24T00:56:35.709Z,101416.39
2019-03-24T00:59:05.674Z,101410.64
2019-03-24T01:01:36.191Z,101409.63
2019-03-24T01:04:06.961Z,101410.94
2019-03-24T01:06:37.817Z,101399.66
2019-03-24T01:09:08.984Z,101408.61
2019-03-24T01:11:39.427Z,101398.36
2019-03-24T01:14:09.964Z,101395.16
2019-03-24T01:16:40.818Z,101393.02
2019-03-24T01:19:11.587Z,101390.20
2019-03-24T01:21:42.321Z,101386.70
2019-03-24T01:24:12.993Z,101396.73
2019-03-24T01:26:43.832Z,101400.70
2019-03-24T01:29:14.607Z,101402.34
2019-03-24T01:31:45.356Z,101402.63
2019-03-24T01:34:18.871Z,101412.17
2019-03-24T01:36:51.464Z,101422.38
2019-03-24T01:39:22.325Z,101430.52
2019-03-24T01:41:52.976Z,101432.88
2019-03-24T01:44:23.829Z,101430.20
2019-03-24T01:46:54.566Z,101423.64
2019-03-24T01:49:25.338Z,101424.78
2019-03-24T01:51:55.989Z,101421.20
2019-03-24T01:54:26.843Z,101425.89
2019-03-24T01:56:57.600Z,101423.13
2019-03-24T01:59:28.234Z,101423.71
2019-03-24T02:01:58.200Z,101413.91
2019-03-24T02:04:28.732Z,101423.05
2019-03-24T02:06:58.799Z,101416.45
2019-03-24T02:09:29.322Z,101420.88
2019-03-24T02:12:00.079Z,101414.79
2019-03-24T02:14:30.716Z,101415.23
2019-03-24T02:17:01.465Z,101412.42
2019-03-24T02:19:32.236Z,101413.86
2019-03-24T02:22:02.972Z,101412.06
2019-03-24T02:24:33.825Z,101415.41
2019-03-24T02:27:04.702Z,101410.11
2019-03-24T02:29:35.458Z,101416.78
2019-03-24T02:32:06.110Z,101416.23
2019-03-24T02:34:36.967Z,101413.91
2019-03-24T02:37:16.413Z,101413.13
2019-03-24T02:39:46.943Z,101410.36
2019-03-24T02:42:16.831Z,101415.81
2019-03-24T02:44:47.350Z,101416.89
2019-03-24T02:47:18.205Z,101421.02
2019-03-24T02:49:48.953Z,101413.45
2019-03-24T02:52:19.611Z,101416.00
2019-03-24T02:54:50.342Z,101419.20
2019-03-24T02:57:21.113Z,101415.11
2019-03-24T02:59:51.866Z,101418.13
2019-03-24T03:02:22.521Z,101423.94
2019-03-24T03:04:53.376Z,101422.45
2019-03-24T03:07:24.133Z,101414.52
2019-03-24T03:09:54.765Z,101414.67
2019-03-24T03:12:24.734Z,101415.11
2019-03-24T03:14:54.957Z,101414.97
2019-03-24T03:17:25.709Z,101410.54
2019-03-24T03:19:56.346Z,101410.95
2019-03-24T03:22:27.104Z,101409.99
2019-03-24T03:24:57.955Z,101407.55
2019-03-24T03:27:28.606Z,101411.47
2019-03-24T03:29:58.574Z,101416.92
2019-03-24T03:32:29.108Z,101418.73
2019-03-24T03:34:59.743Z,101428.77
2019-03-24T03:37:29.825Z,101422.34
2019-03-24T03:40:00.852Z,101416.52
2019-03-24T03:42:31.420Z,101417.95
2019-03-24T03:45:02.272Z,101417.59
2019-03-24T03:47:32.899Z,101415.56
2019-03-24T03:50:02.869Z,101420.14
2019-03-24T03:52:33.398Z,101429.28
2019-03-24T03:55:04.984Z,101429.28
2019-03-24T03:57:35.533Z,101430.47
2019-03-24T04:00:07.798Z,101421.50
2019-03-24T04:02:38.456Z,101423.05
2019-03-24T04:05:09.316Z,101413.38
2019-03-24T04:07:40.175Z,101413.13
2019-03-24T04:10:10.927Z,101413.38
2019-03-24T04:12:41.579Z,101412.13
2019-03-24T04:15:12.437Z,101410.95
2019-03-24T04:17:43.190Z,101413.86
2019-03-24T04:20:13.939Z,101424.53
2019-03-24T04:22:44.813Z,101428.47
2019-03-24T04:25:15.536Z,101428.77
2019-03-24T04:27:46.310Z,101424.90
2019-03-24T04:30:16.960Z,101415.03
2019-03-24T04:32:47.813Z,101420.80
2019-03-24T04:35:18.567Z,101420.31
2019-03-24T04:37:49.324Z,101426.97
2019-03-24T04:40:20.075Z,101430.81
2019-03-24T04:42:50.932Z,101429.22
2019-03-24T04:45:21.687Z,101424.27
2019-03-24T04:47:52.323Z,101424.14
2019-03-24T04:50:23.192Z,101423.73
2019-03-24T04:52:53.930Z,101407.30
2019-03-24T04:55:24.685Z,101417.41
2019-03-24T04:57:55.351Z,101418.91
2019-03-24T05:00:36.569Z,101415.09
2019-03-24T05:03:07.293Z,101410.08
2019-03-24T05:05:38.247Z,101419.39
2019-03-24T05:08:09.393Z,101426.58
2019-03-24T05:10:40.249Z,101412.36
2019-03-24T05:13:11.125Z,101413.41
2019-03-24T05:15:41.879Z,101418.11
2019-03-24T05:18:12.532Z,101419.42
2019-03-24T05:20:43.370Z,101423.03
2019-03-24T05:23:14.141Z,101420.00
2019-03-24T05:25:44.896Z,101412.03
2019-03-24T05:28:15.543Z,101402.72
2019-03-24T05:30:46.301Z,101415.56
2019-03-24T05:33:17.052Z,101425.67
2019-03-24T05:35:47.805Z,101421.33
2019-03-24T05:38:18.663Z,101413.05
2019-03-24T05:40:49.521Z,101395.77
2019-03-24T05:43:20.274Z,101391.24
2019-03-24T05:45:50.923Z,101400.72
2019-03-24T05:48:21.789Z,101405.19
2019-03-24T05:50:52.520Z,101400.73
2019-03-24T05:53:23.171Z,101408.57
2019-03-24T05:55:53.923Z,101421.56
2019-03-24T05:58:24.673Z,101414.22
2019-03-24T06:00:55.538Z,101415.72
2019-03-24T06:03:26.303Z,101416.78
2019-03-24T06:05:56.938Z,101420.89
2019-03-24T06:08:27.691Z,101414.22
2019-03-24T06:10:58.564Z,101422.14
2019-03-24T06:13:29.198Z,101417.81
2019-03-24T06:15:59.382Z,101425.80
2019-03-24T06:18:29.785Z,101421.07
2019-03-24T06:21:00.552Z,101421.95
2019-03-24T06:23:31.412Z,101429.69
2019-03-24T06:26:02.254Z,101414.69
2019-03-24T06:28:33.022Z,101421.36
2019-03-24T06:31:03.673Z,101421.55
2019-03-24T06:33:34.211Z,101411.81
2019-03-24T06:36:05.087Z,101408.34
2019-03-24T06:38:35.839Z,101417.73
2019-03-24T06:41:06.590Z,101403.49
2019-03-24T06:43:37.444Z,101409.81
2019-03-24T06:46:08.297Z,101411.11
2019-03-24T06:48:38.831Z,101411.84
2019-03-24T06:51:08.912Z,101404.92
2019-03-24T06:53:39.418Z,101401.98
2019-03-24T06:56:10.071Z,101401.19
2019-03-24T06:58:40.150Z,101396.55
2019-03-24T07:01:10.658Z,101410.81
2019-03-24T07:03:40.526Z,101411.48
2019-03-24T07:06:11.056Z,101412.13
2019-03-24T07:08:41.588Z,101412.89
2019-03-24T07:11:13.863Z,101418.09
2019-03-24T07:13:44.647Z,101419.39
2019-03-24T07:16:14.710Z,101420.88
2019-03-24T07:18:45.235Z,101420.82
2019-03-24T07:21:15.198Z,101419.94
2019-03-24T07:23:45.708Z,101416.22
2019-03-24T07:26:15.782Z,101407.69
2019-03-24T07:28:46.310Z,101416.20
2019-03-24T07:31:17.060Z,101413.02
2019-03-24T07:33:47.713Z,101398.88
2019-03-24T07:36:18.571Z,101401.48
2019-03-24T07:38:49.101Z,101397.23
2019-03-24T07:41:19.973Z,101401.25
2019-03-24T07:43:50.216Z,101396.38
2019-03-24T07:46:20.749Z,101383.50
2019-03-24T07:48:51.195Z,101384.83
2019-03-24T07:51:21.275Z,101390.34
2019-03-24T07:53:51.706Z,101379.52
2019-03-24T07:56:21.658Z,101377.33
2019-03-24T07:58:52.167Z,101391.00
2019-03-24T08:01:22.243Z,101377.22
2019-03-24T08:03:52.874Z,101368.05
2019-03-24T08:06:23.711Z,101352.58
2019-03-24T08:08:54.383Z,101349.39
2019-03-24T08:11:25.162Z,101360.30
2019-03-24T08:13:55.784Z,101356.56
2019-03-24T08:16:26.749Z,101355.69
2019-03-24T08:18:56.705Z,101338.00
2019-03-24T08:21:27.497Z,101333.34
2019-03-24T08:24:04.216Z,101326.42
2019-03-24T08:26:35.161Z,101323.64
2019-03-24T08:29:05.030Z,101317.38
2019-03-24T08:31:35.092Z,101318.61
2019-03-24T08:34:05.426Z,101323.45
2019-03-24T08:36:35.654Z,101318.88
2019-03-24T08:39:06.398Z,101326.39
2019-03-24T08:41:38.719Z,101313.38
2019-03-24T08:44:08.860Z,101321.59
2019-03-24T08:46:39.180Z,101312.87
2019-03-24T08:49:09.394Z,101305.41
2019-03-24T08:51:39.360Z,101304.34
2019-03-24T08:54:09.891Z,101297.92
2019-03-24T08:56:40.547Z,101299.87
2019-03-24T08:59:11.200Z,101283.92
2019-03-24T09:01:41.730Z,101291.46
2019-03-24T09:04:12.277Z,101279.36
2019-03-24T09:06:42.146Z,101270.75
2019-03-24T09:09:12.663Z,101270.83
2019-03-24T09:11:42.629Z,101263.88
2019-03-24T09:14:13.164Z,101252.61
2019-03-24T09:16:43.816Z,101244.08
2019-03-24T09:19:14.466Z,101249.52
2019-03-24T09:21:44.316Z,101247.27
2019-03-24T09:24:14.851Z,101230.14
2019-03-24T09:26:45.500Z,101244.30
2019-03-24T09:29:15.249Z,101251.48
2019-03-24T09:31:45.764Z,101260.17
2019-03-24T09:34:16.434Z,101255.73
2019-03-24T09:36:46.398Z,101252.51
2019-03-24T09:39:16.918Z,101258.11
2019-03-24T09:41:47.572Z,101250.81
2019-03-24T09:44:17.419Z,101257.34
2019-03-24T09:46:47.937Z,101257.64
2019-03-24T09:49:18.708Z,101248.58
2019-03-24T09:51:49.253Z,101252.20
2019-03-24T09:54:19.806Z,101252.66
2019-03-24T09:56:49.757Z,101247.52
2019-03-24T09:59:20.290Z,101231.58
2019-03-24T10:01:50.250Z,101235.55
2019-03-24T10:04:20.660Z,101230.30
2019-03-24T10:06:50.736Z,101227.93
2019-03-24T10:09:21.140Z,101228.48
2019-03-24T10:11:51.894Z,101236.02
2019-03-24T10:14:22.566Z,101225.68
2019-03-24T10:16:55.611Z,101218.94
2019-03-24T10:19:25.178Z,101224.61
2019-03-24T10:21:56.054Z,101227.02
2019-03-24T10:24:26.701Z,101219.53
2019-03-24T10:26:57.048Z,101219.87
2019-03-24T10:29:27.008Z,101224.69
2019-03-24T10:31:57.413Z,101222.09
2019-03-24T10:34:27.383Z,101211.64
2019-03-24T10:36:57.919Z,101211.86
2019-03-24T10:39:27.876Z,101206.83
2019-03-24T10:41:58.937Z,101208.95
2019-03-24T10:44:29.260Z,101204.58
2019-03-24T10:46:59.909Z,101203.35
2019-03-24T10:49:30.770Z,101195.91
2019-03-24T10:52:01.520Z,101183.47
2019-03-24T10:54:31.479Z,101192.63
2019-03-24T10:57:01.985Z,101180.20
2019-03-24T10:59:32.067Z,101179.81
2019-03-24T11:02:02.594Z,101179.84
2019-03-24T11:04:33.344Z,101166.70
2019-03-24T11:07:03.193Z,101157.70
2019-03-24T11:09:33.835Z,101165.02
2019-03-24T11:12:03.791Z,101167.33
2019-03-24T11:14:34.417Z,101162.03
2019-03-24T11:17:05.152Z,101164.62
2019-03-24T11:19:36.186Z,101148.48
2019-03-24T11:22:06.782Z,101146.69
2019-03-24T11:24:37.534Z,101132.33
2019-03-24T11:27:09.517Z,101137.19
2019-03-24T11:29:39.844Z,101128.27
2019-03-24T11:32:09.813Z,101118.16
2019-03-24T11:34:40.280Z,101123.80
2019-03-24T11:37:12.532Z,101124.58
2019-03-24T11:39:43.183Z,101129.94
2019-03-24T11:42:14.045Z,101126.81
2019-03-24T11:44:44.999Z,101127.64
2019-03-24T11:47:26.224Z,101132.05
2019-03-24T11:49:49.681Z,101118.10
2019-03-24T11:52:20.318Z,101121.31
2019-03-24T11:54:51.109Z,101124.74
2019-03-24T11:57:21.839Z,101123.21
2019-03-24T11:59:52.693Z,101120.72
2019-03-24T12:02:23.447Z,101131.79
2019-03-24T12:04:54.814Z,101128.51
2019-03-24T12:07:25.266Z,101123.70
2019-03-24T12:09:56.013Z,101131.38
2019-03-24T12:12:26.647Z,101120.30
2019-03-24T12:14:56.735Z,101120.98
2019-03-24T12:17:27.256Z,101122.05
2019-03-24T12:19:57.733Z,101118.65
2019-03-24T12:22:28.132Z,101118.14
2019-03-24T12:24:59.003Z,101115.29
2019-03-24T12:27:29.865Z,101111.70
2019-03-24T12:30:00.614Z,101101.53
2019-03-24T12:32:31.265Z,101104.97
2019-03-24T12:35:02.125Z,101100.75
2019-03-24T12:37:32.875Z,101091.20
2019-03-24T12:40:04.538Z,101089.32
2019-03-24T12:42:35.099Z,101082.61
2019-03-24T12:45:09.127Z,101077.08
2019-03-24T12:47:39.783Z,101077.46
2019-03-24T12:50:10.648Z,101070.73
2019-03-24T12:52:41.271Z,101074.19
2019-03-24T12:55:11.346Z,101075.56
2019-03-24T12:57:44.103Z,101075.49
2019-03-24T13:00:15.798Z,101072.19
2019-03-24T13:02:46.451Z,101070.20
2019-03-24T13:05:17.306Z,101063.20
2019-03-24T13:07:48.061Z,101069.09
2019-03-24T13:10:18.813Z,101060.45
2019-03-24T13:12:49.566Z,101061.75
2019-03-24T13:15:20.425Z,101070.31
2019-03-24T13:17:51.192Z,101079.91
2019-03-24T13:20:36.498Z,101092.45
2019-03-24T13:22:54.118Z,101092.23
2019-03-24T13:25:24.956Z,101095.03
2019-03-24T13:27:55.733Z,101106.44
2019-03-24T13:30:26.379Z,101100.91
2019-03-24T13:32:57.233Z,101095.47
2019-03-24T13:35:28.090Z,101096.19
2019-03-24T13:37:58.826Z,101085.20
2019-03-24T13:40:28.793Z,101076.03
2019-03-24T13:42:59.430Z,101082.70
2019-03-24T13:45:29.484Z,101077.48
2019-03-24T13:48:00.074Z,101068.51
2019-03-24T13:50:31.826Z,101073.34
2019-03-24T13:53:02.650Z,101063.59
2019-03-24T13:55:33.508Z,101076.40
2019-03-24T13:58:04.466Z,101070.50
2019-03-24T14:00:35.221Z,101066.77
2019-03-24T14:03:05.861Z,101062.17
2019-03-24T14:05:36.609Z,101067.19
2019-03-24T14:08:07.360Z,101060.02
2019-03-24T14:10:37.926Z,101066.88
2019-03-24T14:13:08.478Z,101070.75
2019-03-24T14:15:38.538Z,101065.31
2019-03-24T14:18:08.946Z,101061.19
2019-03-24T14:20:43.635Z,101067.80
2019-03-24T14:23:10.759Z,101062.58
2019-03-24T14:25:40.839Z,101069.03
2019-03-24T14:28:11.367Z,101061.52
2019-03-24T14:30:48.968Z,101063.45
2019-03-24T14:33:19.210Z,101060.08
2019-03-24T14:35:49.062Z,101056.14
2019-03-24T14:38:19.550Z,101052.23
2019-03-24T14:40:49.560Z,101045.65
2019-03-24T14:43:20.182Z,101043.35
2019-03-24T14:45:50.835Z,101045.34
2019-03-24T14:48:21.575Z,101042.31
2019-03-24T14:50:54.794Z,101037.92
2019-03-24T14:53:24.425Z,101038.38
2019-03-24T14:55:55.180Z,101044.70
2019-03-24T14:58:25.830Z,101044.41
2019-03-24T15:00:56.689Z,101041.34
2019-03-24T15:03:27.441Z,101037.84
2019-03-24T15:05:58.194Z,101033.72
2019-03-24T15:08:28.849Z,101030.53
2019-03-24T15:10:59.587Z,101023.21
2019-03-24T15:13:29.660Z,101018.92
2019-03-24T15:16:00.189Z,101016.48
2019-03-24T15:18:31.044Z,101015.59
2019-03-24T15:21:05.930Z,101017.43
2019-03-24T15:23:33.863Z,101013.75
2019-03-24T15:26:04.735Z,101011.95
2019-03-24T15:28:35.493Z,101008.89
2019-03-24T15:31:06.147Z,101010.41
2019-03-24T15:33:37.011Z,101014.37
2019-03-24T15:36:07.738Z,101011.03
2019-03-24T15:38:38.492Z,101011.98
2019-03-24T15:41:10.778Z,101014.02
2019-03-24T15:43:41.551Z,101011.88
2019-03-24T15:46:12.404Z,101006.23
2019-03-24T15:48:43.472Z,101006.32
2019-03-24T15:51:17.204Z,101004.21
2019-03-24T15:53:46.455Z,101004.06
2019-03-24T15:56:17.983Z,101002.41
2019-03-24T15:58:48.832Z,101006.39
2019-03-24T16:01:19.692Z,101011.29
2019-03-24T16:03:50.529Z,101001.36
2019-03-24T16:06:21.404Z,101003.05
2019-03-24T16:08:53.798Z,100997.72
2019-03-24T16:11:24.752Z,101003.88
2019-03-24T16:13:55.370Z,100998.39
2019-03-24T16:16:26.668Z,100999.67
2019-03-24T16:18:57.404Z,101002.20
2019-03-24T16:21:31.105Z,101000.25
2019-03-24T16:24:00.753Z,100999.80
2019-03-24T16:26:31.408Z,101004.05
2019-03-24T16:29:01.591Z,100996.09
2019-03-24T16:31:32.111Z,100998.70
2019-03-24T16:34:02.744Z,100999.94
2019-03-24T16:36:33.617Z,101004.84
2019-03-24T16:39:06.982Z,101003.77
2019-03-24T16:41:37.572Z,101002.27
2019-03-24T16:44:08.438Z,101009.32
2019-03-24T16:46:40.622Z,101002.28
2019-03-24T16:49:11.581Z,101000.16
2019-03-24T16:51:42.224Z,101007.64
2019-03-24T16:54:12.990Z,100999.37
2019-03-24T16:56:43.639Z,100998.45
2019-03-24T16:59:14.503Z,100993.08
2019-03-24T17:01:45.128Z,101000.73
2019-03-24T17:04:17.532Z,101002.25
2019-03-24T17:06:48.279Z,101003.78
2019-03-24T17:09:19.150Z,101004.07
2019-03-24T17:11:49.782Z,100995.23
2019-03-24T17:14:20.245Z,100999.69
2019-03-24T17:16:50.898Z,100999.23
2019-03-24T17:19:21.736Z,100995.58
2019-03-24T17:21:52.493Z,100995.72
2019-03-24T17:24:23.244Z,100997.09
2019-03-24T17:26:53.911Z,101001.20
2019-03-24T17:29:24.753Z,100999.39
2019-03-24T17:31:55.506Z,100990.54
2019-03-24T17:34:27.815Z,100993.11
2019-03-24T17:36:58.154Z,100990.97
2019-03-24T17:39:28.910Z,100985.47
2019-03-24T17:41:59.764Z,100992.03
2019-03-24T17:44:30.623Z,100987.45
2019-03-24T17:47:01.375Z,100983.62
2019-03-24T17:49:32.007Z,100981.03
2019-03-24T17:52:02.887Z,100991.56
2019-03-24T17:54:33.617Z,100986.04
2019-03-24T17:57:04.277Z,100987.58
2019-03-24T17:59:34.349Z,100994.28
2019-03-24T18:02:13.955Z,100988.92
2019-03-24T18:04:36.958Z,100988.31
2019-03-24T18:07:07.815Z,100985.23
2019-03-24T18:09:38.770Z,100989.68
2019-03-24T18:12:08.416Z,100997.19
2019-03-24T18:14:38.726Z,100992.47
2019-03-24T18:17:09.603Z,100991.98
2019-03-24T18:19:40.354Z,100985.87
2019-03-24T18:22:11.969Z,100984.83
2019-03-24T18:24:42.886Z,100983.13
2019-03-24T18:27:13.622Z,100982.80
2019-03-24T18:29:44.499Z,100982.48
2019-03-24T18:32:15.251Z,100984.95
2019-03-24T18:34:45.904Z,100984.95
2019-03-24T18:37:16.655Z,100983.26
2019-03-24T18:39:47.394Z,100983.09
2019-03-24T18:42:18.042Z,100988.59
2019-03-24T18:44:48.797Z,100990.56
2019-03-24T18:47:18.876Z,100983.53
2019-03-24T18:49:49.402Z,100979.08
2019-03-24T18:52:28.705Z,100982.27
2019-03-24T18:55:04.765Z,100975.08
2019-03-24T18:57:49.407Z,100972.64
2019-03-24T19:00:22.799Z,100969.58
2019-03-24T19:03:03.732Z,100966.34
2019-03-24T19:05:35.277Z,100979.80
2019-03-24T19:08:05.776Z,100973.04
2019-03-24T19:10:36.662Z,100977.27
2019-03-24T19:13:07.412Z,100979.52
2019-03-24T19:15:38.158Z,100978.91
2019-03-24T19:18:09.015Z,100975.68
2019-03-24T19:20:39.870Z,100978.27
2019-03-24T19:23:10.628Z,100976.45
2019-03-24T19:25:41.278Z,100972.48
2019-03-24T19:28:12.134Z,100969.02
2019-03-24T19:30:42.992Z,100969.99
2019-03-24T19:33:13.749Z,100963.81
2019-03-24T19:35:44.397Z,100965.79
2019-03-24T19:38:15.148Z,100965.78
2019-03-24T19:40:46.006Z,100961.45
2019-03-24T19:43:16.760Z,100964.03
2019-03-24T19:45:47.411Z,100962.70
2019-03-24T19:48:18.165Z,100958.97
2019-03-24T19:50:50.028Z,100964.02
2019-03-24T19:53:20.779Z,100964.78
2019-03-24T19:55:51.552Z,100966.59
2019-03-24T19:58:22.207Z,100966.88
2019-03-24T20:00:53.059Z,100963.97
2019-03-24T20:03:25.351Z,100970.07
2019-03-24T20:05:55.996Z,100967.81
2019-03-24T20:08:26.752Z,100971.00
2019-03-24T20:10:57.287Z,100970.24
2019-03-24T20:13:28.158Z,100966.28
2019-03-24T20:15:58.910Z,100969.35
2019-03-24T20:18:29.664Z,100966.63
2019-03-24T20:21:00.194Z,100962.19
2019-03-24T20:23:31.057Z,100948.13
2019-03-24T20:26:01.823Z,100961.75
2019-03-24T20:28:32.561Z,100962.80
2019-03-24T20:31:03.228Z,100953.62
2019-03-24T20:33:34.070Z,100957.59
2019-03-24T20:36:04.840Z,100953.78
2019-03-24T20:38:35.594Z,100949.69
2019-03-24T20:41:06.329Z,100948.77
2019-03-24T20:43:37.201Z,100950.77
2019-03-24T20:46:07.957Z,100951.09
2019-03-24T20:48:38.608Z,100951.23
2019-03-24T20:51:09.463Z,100947.73
2019-03-24T20:53:40.217Z,100951.09
2019-03-24T20:56:10.972Z,100950.94
2019-03-24T20:58:41.507Z,100954.59
2019-03-24T21:01:13.811Z,100951.38
2019-03-24T21:03:44.666Z,100959.48
2019-03-24T21:06:15.315Z,100957.17
2019-03-24T21:08:45.968Z,100958.25
2019-03-24T21:11:16.830Z,100957.47
2019-03-24T21:13:47.581Z,100964.33
2019-03-24T21:16:19.256Z,100960.98
2019-03-24T21:18:51.061Z,100956.09
2019-03-24T21:21:21.781Z,100957.94
2019-03-24T21:23:52.435Z,100955.48
2019-03-24T21:26:23.089Z,100953.50
2019-03-24T21:28:53.842Z,100946.92
2019-03-24T21:31:24.493Z,100944.91
2019-03-24T21:33:55.226Z,100949.18
2019-03-24T21:36:25.987Z,100945.34
2019-03-24T21:38:56.754Z,100940.45
2019-03-24T21:41:27.389Z,100938.15
2019-03-24T21:43:58.142Z,100940.69
2019-03-24T21:46:29.121Z,100944.78
2019-03-24T21:48:59.769Z,100948.61
2019-03-24T21:51:30.607Z,100948.91
2019-03-24T21:54:01.481Z,100951.40
2019-03-24T21:56:32.233Z,100943.69
2019-03-24T21:59:02.886Z,100944.77
2019-03-24T22:01:33.623Z,100940.98
2019-03-24T22:04:04.394Z,100943.47
2019-03-24T22:06:35.133Z,100936.86
2019-03-24T22:09:07.475Z,100929.88
2019-03-24T22:11:37.986Z,100922.39
2019-03-24T22:14:08.841Z,100916.77
2019-03-24T22:16:39.593Z,100910.80
2019-03-24T22:19:10.251Z,100911.75
2019-03-24T22:21:41.100Z,100921.84
2019-03-24T22:24:11.960Z,100923.16
2019-03-24T22:26:42.741Z,100919.81
2019-03-24T22:29:13.248Z,100921.39
2019-03-24T22:31:44.099Z,100926.84
2019-03-24T22:34:14.749Z,100922.89
2019-03-24T22:36:45.506Z,100925.63
2019-03-24T22:39:16.048Z,100921.45
2019-03-24T22:41:46.915Z,100922.75
2019-03-24T22:44:17.783Z,100928.80
2019-03-24T22:46:48.725Z,100920.12
2019-03-24T22:49:18.497Z,100928.13
2019-03-24T22:51:49.006Z,100932.25
2019-03-24T22:54:19.778Z,100938.39
2019-03-24T22:56:50.470Z,100938.65
2019-03-24T22:59:21.391Z,100933.97
2019-03-24T23:01:52.145Z,100929.73
2019-03-24T23:04:22.796Z,100933.45
2019-03-24T23:06:53.650Z,100926.53
2019-03-24T23:09:24.561Z,100938.41
2019-03-24T23:11:55.365Z,100929.23
2019-03-24T23:14:26.214Z,100936.95
2019-03-24T23:16:57.099Z,100931.44
2019-03-24T23:19:27.808Z,100938.31
2019-03-24T23:21:57.887Z,100934.72
2019-03-24T23:24:36.885Z,100933.73
2019-03-24T23:27:07.539Z,100936.80
2019-03-24T23:29:38.195Z,100933.47
2019-03-24T23:32:08.269Z,100929.29
2019-03-24T23:34:38.672Z,100924.09
2019-03-24T23:37:09.444Z,100925.34
2019-03-24T23:39:39.975Z,100927.40
2019-03-24T23:42:10.851Z,100931.25
2019-03-24T23:44:41.604Z,100929.11
2019-03-24T23:47:12.458Z,100929.88
2019-03-24T23:49:43.194Z,100921.25
2019-03-24T23:52:14.068Z,100923.20
2019-03-24T23:54:44.824Z,100929.25
2019-03-24T23:57:15.458Z,100922.26
2019-03-24T23:59:46.329Z,100921.73
